sensor_id;sensor_type;location;lat;lon;timestamp;pressure;altitude;pressure_sealevel;temperature;humidity
13612;BME280;6877;51.436;6.774;2022-11-20T00:00:42;100926.16;;;-4.20;93.55
13612;BME280;6877;51.436;6.774;2022-11-20T00:03:09;100926.69;;;-4.27;93.45
13612;BME280;6877;51.436;6.774;2022-11-20T00:05:40;100934.91;;;-4.34;93.46
13612;BME280;6877;51.436;6.774;2022-11-20T00:08:07;100935.56;;;-4.38;93.64
13612;BME280;6877;51.436;6.774;2022-11-20T00:10:36;100932.72;;;-4.45;94.05
13612;BME280;6877;51.436;6.774;2022-11-20T00:13:08;100934.91;;;-4.34;94.90
13612;BME280;6877;51.436;6.774;2022-11-20T00:15:39;100931.34;;;-4.18;95.21
13612;BME280;6877;51.436;6.774;2022-11-20T00:18:11;100926.41;;;-4.14;94.91
13612;BME280;6877;51.436;6.774;2022-11-20T00:20:37;100927.00;;;-4.20;94.65
13612;BME280;6877;51.436;6.774;2022-11-20T00:23:03;100928.06;;;-4.16;94.66
13612;BME280;6877;51.436;6.774;2022-11-20T00:25:35;100930.19;;;-4.25;94.54
13612;BME280;6877;51.436;6.774;2022-11-20T00:28:06;100929.06;;;-4.32;94.73
13612;BME280;6877;51.436;6.774;2022-11-20T00:30:38;100927.25;;;-4.34;95.17
13612;BME280;6877;51.436;6.774;2022-11-20T00:33:09;100916.94;;;-4.36;95.16
13612;BME280;6877;51.436;6.774;2022-11-20T00:35:40;100927.69;;;-4.43;94.87
13612;BME280;6877;51.436;6.774;2022-11-20T00:38:12;100919.91;;;-4.46;95.09
13612;BME280;6877;51.436;6.774;2022-11-20T00:40:43;100921.19;;;-4.36;95.91
13612;BME280;6877;51.436;6.774;2022-11-20T00:43:14;100921.84;;;-4.40;95.37
13612;BME280;6877;51.436;6.774;2022-11-20T00:45:46;100918.34;;;-4.43;95.39
13612;BME280;6877;51.436;6.774;2022-11-20T00:48:17;100914.69;;;-4.48;95.34
13612;BME280;6877;51.436;6.774;2022-11-20T00:50:49;100913.56;;;-4.54;95.53
13612;BME280;6877;51.436;6.774;2022-11-20T00:53:21;100915.97;;;-4.57;95.51
13612;BME280;6877;51.436;6.774;2022-11-20T00:58:27;100913.00;;;-4.67;95.91
13612;BME280;6877;51.436;6.774;2022-11-20T01:01:06;100906.84;;;-4.72;96.23
13612;BME280;6877;51.436;6.774;2022-11-20T01:03:40;100904.94;;;-4.76;96.23
13612;BME280;6877;51.436;6.774;2022-11-20T01:06:11;100914.25;;;-4.76;96.52
13612;BME280;6877;51.436;6.774;2022-11-20T01:08:43;100905.97;;;-4.72;96.73
13612;BME280;6877;51.436;6.774;2022-11-20T01:11:17;100899.50;;;-4.64;97.08
13612;BME280;6877;51.436;6.774;2022-11-20T01:13:50;100903.75;;;-4.64;97.13
13612;BME280;6877;51.436;6.774;2022-11-20T01:16:23;100897.03;;;-4.62;97.11
13612;BME280;6877;51.436;6.774;2022-11-20T01:18:58;100898.88;;;-4.40;97.81
13612;BME280;6877;51.436;6.774;2022-11-20T01:21:32;100896.97;;;-4.25;97.89
13612;BME280;6877;51.436;6.774;2022-11-20T01:24:05;100899.16;;;-4.13;97.93
13612;BME280;6877;51.436;6.774;2022-11-20T01:26:40;100894.69;;;-4.19;97.13
13612;BME280;6877;51.436;6.774;2022-11-20T01:29:09;100899.31;;;-4.30;96.34
13612;BME280;6877;51.436;6.774;2022-11-20T01:31:37;100898.41;;;-4.32;96.87
13612;BME280;6877;51.436;6.774;2022-11-20T01:34:17;100904.25;;;-4.34;96.71
13612;BME280;6877;51.436;6.774;2022-11-20T01:36:49;100900.28;;;-4.28;97.03
13612;BME280;6877;51.436;6.774;2022-11-20T01:39:23;100898.31;;;-4.14;97.17
13612;BME280;6877;51.436;6.774;2022-11-20T01:41:56;100898.84;;;-4.02;97.19
13612;BME280;6877;51.436;6.774;2022-11-20T01:47:16;100894.19;;;-3.70;97.14
13612;BME280;6877;51.436;6.774;2022-11-20T01:49:59;100891.66;;;-3.49;96.78
13612;BME280;6877;51.436;6.774;2022-11-20T01:52:37;100892.56;;;-3.26;96.49
13612;BME280;6877;51.436;6.774;2022-11-20T01:55:13;100883.84;;;-3.09;95.87
13612;BME280;6877;51.436;6.774;2022-11-20T01:57:48;100888.44;;;-3.00;95.43
13612;BME280;6877;51.436;6.774;2022-11-20T02:00:20;100885.94;;;-2.98;94.87
13612;BME280;6877;51.436;6.774;2022-11-20T02:02:59;100880.88;;;-2.97;94.51
13612;BME280;6877;51.436;6.774;2022-11-20T02:08:05;100872.56;;;-2.91;94.38
13612;BME280;6877;51.436;6.774;2022-11-20T02:10:37;100879.53;;;-2.87;94.33
13612;BME280;6877;51.436;6.774;2022-11-20T02:13:09;100879.75;;;-2.81;94.11
13612;BME280;6877;51.436;6.774;2022-11-20T02:15:59;100875.09;;;-2.69;94.30
13612;BME280;6877;51.436;6.774;2022-11-20T02:18:31;100869.50;;;-2.59;93.93
13612;BME280;6877;51.436;6.774;2022-11-20T02:26:57;100856.44;;;-2.42;93.25
13612;BME280;6877;51.436;6.774;2022-11-20T02:32:27;100855.75;;;-2.37;92.83
13612;BME280;6877;51.436;6.774;2022-11-20T02:38:00;100856.03;;;-2.29;92.74
13612;BME280;6877;51.436;6.774;2022-11-20T02:40:32;100856.16;;;-2.26;92.83
13612;BME280;6877;51.436;6.774;2022-11-20T02:43:03;100858.75;;;-2.24;92.58
13612;BME280;6877;51.436;6.774;2022-11-20T02:45:35;100851.13;;;-2.23;92.70
13612;BME280;6877;51.436;6.774;2022-11-20T02:48:06;100855.38;;;-2.23;92.48
13612;BME280;6877;51.436;6.774;2022-11-20T02:50:39;100848.59;;;-2.21;92.37
13612;BME280;6877;51.436;6.774;2022-11-20T02:53:11;100852.25;;;-2.15;92.66
13612;BME280;6877;51.436;6.774;2022-11-20T02:55:37;100853.28;;;-2.10;92.51
13612;BME280;6877;51.436;6.774;2022-11-20T02:58:04;100850.88;;;-2.05;92.42
13612;BME280;6877;51.436;6.774;2022-11-20T03:00:35;100852.75;;;-2.01;92.50
13612;BME280;6877;51.436;6.774;2022-11-20T03:03:06;100854.66;;;-1.95;92.36
13612;BME280;6877;51.436;6.774;2022-11-20T03:05:38;100850.53;;;-1.90;92.00
13612;BME280;6877;51.436;6.774;2022-11-20T03:08:09;100838.66;;;-1.87;92.19
13612;BME280;6877;51.436;6.774;2022-11-20T03:10:36;100837.97;;;-1.82;91.87
13612;BME280;6877;51.436;6.774;2022-11-20T03:13:07;100841.41;;;-1.82;91.90
13612;BME280;6877;51.436;6.774;2022-11-20T03:15:38;100839.69;;;-1.81;91.80
13612;BME280;6877;51.436;6.774;2022-11-20T03:18:10;100850.06;;;-1.78;91.75
13612;BME280;6877;51.436;6.774;2022-11-20T03:20:41;100842.41;;;-1.77;91.97
13612;BME280;6877;51.436;6.774;2022-11-20T03:23:13;100841.72;;;-1.73;91.82
13612;BME280;6877;51.436;6.774;2022-11-20T03:25:39;100837.47;;;-1.71;91.70
13612;BME280;6877;51.436;6.774;2022-11-20T03:28:11;100835.88;;;-1.67;91.66
13612;BME280;6877;51.436;6.774;2022-11-20T03:30:42;100841.06;;;-1.66;91.68
13612;BME280;6877;51.436;6.774;2022-11-20T03:33:13;100835.28;;;-1.60;91.63
13612;BME280;6877;51.436;6.774;2022-11-20T03:35:40;100843.94;;;-1.56;91.49
13612;BME280;6877;51.436;6.774;2022-11-20T03:38:11;100829.38;;;-1.57;91.37
13612;BME280;6877;51.436;6.774;2022-11-20T03:40:38;100833.66;;;-1.56;91.09
13612;BME280;6877;51.436;6.774;2022-11-20T03:43:04;100832.84;;;-1.55;91.48
13612;BME280;6877;51.436;6.774;2022-11-20T03:45:35;100832.84;;;-1.55;91.52
13612;BME280;6877;51.436;6.774;2022-11-20T03:48:07;100832.94;;;-1.52;91.73
13612;BME280;6877;51.436;6.774;2022-11-20T03:50:33;100830.44;;;-1.51;91.30
13612;BME280;6877;51.436;6.774;2022-11-20T03:53:05;100827.97;;;-1.48;91.47
13612;BME280;6877;51.436;6.774;2022-11-20T03:55:36;100833.13;;;-1.46;91.35
13612;BME280;6877;51.436;6.774;2022-11-20T03:58:08;100822.03;;;-1.45;91.47
13612;BME280;6877;51.436;6.774;2022-11-20T04:00:40;100829.78;;;-1.44;91.43
13612;BME280;6877;51.436;6.774;2022-11-20T04:03:11;100819.56;;;-1.42;91.46
13612;BME280;6877;51.436;6.774;2022-11-20T04:05:43;100816.28;;;-1.38;91.58
13612;BME280;6877;51.436;6.774;2022-11-20T04:08:14;100819.84;;;-1.33;91.46
13612;BME280;6877;51.436;6.774;2022-11-20T04:10:41;100826.78;;;-1.30;91.21
13612;BME280;6877;51.436;6.774;2022-11-20T04:13:12;100818.22;;;-1.31;91.06
13612;BME280;6877;51.436;6.774;2022-11-20T04:15:39;100819.94;;;-1.30;90.93
13612;BME280;6877;51.436;6.774;2022-11-20T04:18:10;100822.59;;;-1.27;91.02
13612;BME280;6877;51.436;6.774;2022-11-20T04:20:41;100816.66;;;-1.26;90.82
13612;BME280;6877;51.436;6.774;2022-11-20T04:23:13;100816.69;;;-1.24;90.72
13612;BME280;6877;51.436;6.774;2022-11-20T04:25:39;100821.06;;;-1.22;90.61
13612;BME280;6877;51.436;6.774;2022-11-20T04:28:11;100822.88;;;-1.18;90.61
13612;BME280;6877;51.436;6.774;2022-11-20T04:30:42;100822.09;;;-1.17;90.72
13612;BME280;6877;51.436;6.774;2022-11-20T04:33:09;100822.09;;;-1.17;90.87
13612;BME280;6877;51.436;6.774;2022-11-20T04:35:40;100819.59;;;-1.13;90.76
13612;BME280;6877;51.436;6.774;2022-11-20T04:38:12;100818.88;;;-1.08;90.84
13612;BME280;6877;51.436;6.774;2022-11-20T04:40:38;100818.94;;;-1.06;90.84
13612;BME280;6877;51.436;6.774;2022-11-20T04:43:10;100819.03;;;-1.03;90.77
13612;BME280;6877;51.436;6.774;2022-11-20T04:45:41;100820.00;;;-1.00;90.72
13612;BME280;6877;51.436;6.774;2022-11-20T04:48:12;100826.09;;;-0.96;90.15
13612;BME280;6877;51.436;6.774;2022-11-20T04:50:44;100815.88;;;-0.95;90.13
13612;BME280;6877;51.436;6.774;2022-11-20T04:53:15;100822.69;;;-0.95;90.26
13612;BME280;6877;51.436;6.774;2022-11-20T04:55:47;100815.91;;;-0.93;90.18
13612;BME280;6877;51.436;6.774;2022-11-20T04:58:14;100818.56;;;-0.90;90.42
13612;BME280;6877;51.436;6.774;2022-11-20T05:00:46;100815.25;;;-0.86;90.33
13612;BME280;6877;51.436;6.774;2022-11-20T05:03:17;100817.03;;;-0.83;90.51
13612;BME280;6877;51.436;6.774;2022-11-20T05:05:48;100815.41;;;-0.81;90.33
13612;BME280;6877;51.436;6.774;2022-11-20T05:08:20;100816.34;;;-0.78;90.59
13612;BME280;6877;51.436;6.774;2022-11-20T05:10:51;100819.91;;;-0.73;90.41
13612;BME280;6877;51.436;6.774;2022-11-20T05:13:17;100817.47;;;-0.68;90.77
13612;BME280;6877;51.436;6.774;2022-11-20T05:15:44;100821.84;;;-0.65;90.48
13612;BME280;6877;51.436;6.774;2022-11-20T05:18:10;100821.16;;;-0.60;90.90
13612;BME280;6877;51.436;6.774;2022-11-20T05:20:37;100816.22;;;-0.51;90.84
13612;BME280;6877;51.436;6.774;2022-11-20T05:23:03;100818.09;;;-0.45;90.92
13612;BME280;6877;51.436;6.774;2022-11-20T05:25:34;100820.75;;;-0.42;90.99
13612;BME280;6877;51.436;6.774;2022-11-20T05:28:01;100824.25;;;-0.40;90.89
13612;BME280;6877;51.436;6.774;2022-11-20T05:30:32;100816.63;;;-0.37;90.70
13612;BME280;6877;51.436;6.774;2022-11-20T05:33:04;100814.13;;;-0.34;91.10
13612;BME280;6877;51.436;6.774;2022-11-20T05:35:35;100813.34;;;-0.31;91.59
13612;BME280;6877;51.436;6.774;2022-11-20T05:38:07;100800.53;;;-0.30;91.88
13612;BME280;6877;51.436;6.774;2022-11-20T05:40:33;100808.31;;;-0.27;91.99
13612;BME280;6877;51.436;6.774;2022-11-20T05:43:00;100817.84;;;-0.22;91.71
13612;BME280;6877;51.436;6.774;2022-11-20T05:45:32;100812.78;;;-0.19;91.78
13612;BME280;6877;51.436;6.774;2022-11-20T05:47:59;100810.19;;;-0.21;91.33
13612;BME280;6877;51.436;6.774;2022-11-20T05:50:29;100813.63;;;-0.20;91.47
13612;BME280;6877;51.436;6.774;2022-11-20T05:52:58;100811.91;;;-0.21;91.72
13612;BME280;6877;51.436;6.774;2022-11-20T05:55:30;100814.47;;;-0.21;91.83
13612;BME280;6877;51.436;6.774;2022-11-20T05:58:01;100810.13;;;-0.22;91.63
13612;BME280;6877;51.436;6.774;2022-11-20T06:00:33;100803.22;;;-0.25;91.72
13612;BME280;6877;51.436;6.774;2022-11-20T06:03:04;100799.75;;;-0.27;91.85
13612;BME280;6877;51.436;6.774;2022-11-20T06:05:35;100803.94;;;-0.31;91.61
13612;BME280;6877;51.436;6.774;2022-11-20T06:08:07;100803.00;;;-0.34;91.89
13612;BME280;6877;51.436;6.774;2022-11-20T06:10:33;100805.41;;;-0.39;92.17
13612;BME280;6877;51.436;6.774;2022-11-20T06:13:04;100801.78;;;-0.47;91.87
13612;BME280;6877;51.436;6.774;2022-11-20T06:15:36;100802.41;;;-0.56;92.27
13612;BME280;6877;51.436;6.774;2022-11-20T06:18:07;100809.03;;;-0.64;92.28
13612;BME280;6877;51.436;6.774;2022-11-20T06:20:34;100806.25;;;-0.72;92.73
13612;BME280;6877;51.436;6.774;2022-11-20T06:23:00;100804.47;;;-0.73;93.09
13612;BME280;6877;51.436;6.774;2022-11-20T06:25:26;100806.25;;;-0.72;93.29
13612;BME280;6877;51.436;6.774;2022-11-20T06:27:58;100810.56;;;-0.71;93.53
13612;BME280;6877;51.436;6.774;2022-11-20T06:30:29;100813.19;;;-0.69;93.70
13612;BME280;6877;51.436;6.774;2022-11-20T06:33:01;100813.34;;;-0.63;94.07
13612;BME280;6877;51.436;6.774;2022-11-20T06:35:27;100816.88;;;-0.59;93.76
13612;BME280;6877;51.436;6.774;2022-11-20T06:37:59;100815.09;;;-0.62;93.35
13612;BME280;6877;51.436;6.774;2022-11-20T06:40:30;100816.78;;;-0.62;93.39
13612;BME280;6877;51.436;6.774;2022-11-20T06:42:56;100821.88;;;-0.64;93.40
13612;BME280;6877;51.436;6.774;2022-11-20T06:45:28;100824.44;;;-0.64;93.50
13612;BME280;6877;51.436;6.774;2022-11-20T06:47:59;100824.44;;;-0.64;93.28
13612;BME280;6877;51.436;6.774;2022-11-20T06:50:25;100822.78;;;-0.62;93.70
13612;BME280;6877;51.436;6.774;2022-11-20T06:53:00;100823.06;;;-0.53;94.01
13612;BME280;6877;51.436;6.774;2022-11-20T06:55:32;100827.59;;;-0.44;93.97
13612;BME280;6877;51.436;6.774;2022-11-20T06:58:03;100829.66;;;-0.31;93.79
13612;BME280;6877;51.436;6.774;2022-11-20T07:00:35;100828.19;;;-0.21;93.63
13612;BME280;6877;51.436;6.774;2022-11-20T07:03:05;100836.94;;;-0.14;93.29
13612;BME280;6877;51.436;6.774;2022-11-20T07:05:37;100836.25;;;-0.07;93.30
13612;BME280;6877;51.436;6.774;2022-11-20T07:08:09;100839.91;;;0.01;92.97
13612;BME280;6877;51.436;6.774;2022-11-20T07:10:36;100843.44;;;0.05;93.21
13612;BME280;6877;51.436;6.774;2022-11-20T07:13:07;100839.22;;;0.08;93.06
13612;BME280;6877;51.436;6.774;2022-11-20T07:15:39;100834.94;;;0.09;92.68
13612;BME280;6877;51.436;6.774;2022-11-20T07:18:10;100830.66;;;0.09;92.88
13612;BME280;6877;51.436;6.774;2022-11-20T07:20:42;100824.66;;;0.09;92.63
13612;BME280;6877;51.436;6.774;2022-11-20T07:23:13;100835.78;;;0.08;92.97
13612;BME280;6877;51.436;6.774;2022-11-20T07:25:40;100832.38;;;0.09;92.95
13612;BME280;6877;51.436;6.774;2022-11-20T07:28:11;100837.66;;;0.13;93.15
13612;BME280;6877;51.436;6.774;2022-11-20T07:30:37;100830.91;;;0.18;93.29
13612;BME280;6877;51.436;6.774;2022-11-20T07:33:09;100835.38;;;0.26;93.12
13612;BME280;6877;51.436;6.774;2022-11-20T07:35:40;100831.19;;;0.31;93.00
13612;BME280;6877;51.436;6.774;2022-11-20T07:38:07;100821.84;;;0.34;92.56
13612;BME280;6877;51.436;6.774;2022-11-20T07:40:39;100820.25;;;0.39;92.35
13612;BME280;6877;51.436;6.774;2022-11-20T07:43:10;100816.91;;;0.42;92.42
13612;BME280;6877;51.436;6.774;2022-11-20T07:45:37;100821.28;;;0.46;92.25
13612;BME280;6877;51.436;6.774;2022-11-20T07:48:04;100821.41;;;0.51;92.17
13612;BME280;6877;51.436;6.774;2022-11-20T07:50:35;100811.13;;;0.52;92.23
13612;BME280;6877;51.436;6.774;2022-11-20T07:53:07;100807.69;;;0.53;92.00
13612;BME280;6877;51.436;6.774;2022-11-20T07:55:33;100810.34;;;0.56;92.16
13612;BME280;6877;51.436;6.774;2022-11-20T07:58:01;100806.13;;;0.58;91.75
13612;BME280;6877;51.436;6.774;2022-11-20T08:00:32;100795.81;;;0.58;91.85
13612;BME280;6877;51.436;6.774;2022-11-20T08:03:04;100802.75;;;0.62;92.03
13612;BME280;6877;51.436;6.774;2022-11-20T08:05:36;100804.66;;;0.69;92.00
13612;BME280;6877;51.436;6.774;2022-11-20T08:08:08;100795.38;;;0.78;92.06
13612;BME280;6877;51.436;6.774;2022-11-20T08:10:40;100813.63;;;0.87;91.50
13612;BME280;6877;51.436;6.774;2022-11-20T08:13:11;100805.19;;;0.94;91.24
13612;BME280;6877;51.436;6.774;2022-11-20T08:16:01;100813.09;;;1.02;91.08
13612;BME280;6877;51.436;6.774;2022-11-20T08:18:32;100812.34;;;1.07;91.23
13612;BME280;6877;51.436;6.774;2022-11-20T08:21:04;100811.59;;;1.13;90.89
13612;BME280;6877;51.436;6.774;2022-11-20T08:23:30;100805.75;;;1.22;90.76
13612;BME280;6877;51.436;6.774;2022-11-20T08:26:02;100816.25;;;1.31;90.59
13612;BME280;6877;51.436;6.774;2022-11-20T08:28:33;100814.72;;;1.39;90.51
13612;BME280;6877;51.436;6.774;2022-11-20T08:31:05;100821.75;;;1.48;90.33
13612;BME280;6877;51.436;6.774;2022-11-20T08:33:36;100820.16;;;1.54;89.70
13612;BME280;6877;51.436;6.774;2022-11-20T08:36:08;100816.88;;;1.61;89.65
13612;BME280;6877;51.436;6.774;2022-11-20T08:38:39;100810.13;;;1.70;89.36
13612;BME280;6877;51.436;6.774;2022-11-20T08:41:11;100817.97;;;1.76;88.46
13612;BME280;6877;51.436;6.774;2022-11-20T08:44:04;100816.34;;;1.81;88.48
13612;BME280;6877;51.436;6.774;2022-11-20T08:46:34;100822.50;;;1.89;88.65
13612;BME280;6877;51.436;6.774;2022-11-20T08:49:01;100822.72;;;2.01;88.70
13612;BME280;6877;51.436;6.774;2022-11-20T08:51:28;100815.19;;;2.12;88.33
13612;BME280;6877;51.436;6.774;2022-11-20T08:53:59;100810.22;;;2.24;88.27
13612;BME280;6877;51.436;6.774;2022-11-20T08:56:31;100816.50;;;2.40;87.65
13612;BME280;6877;51.436;6.774;2022-11-20T08:59:03;100822.03;;;2.65;86.99
13612;BME280;6877;51.436;6.774;2022-11-20T09:01:29;100825.84;;;2.90;86.62
13612;BME280;6877;51.436;6.774;2022-11-20T09:04:01;100822.75;;;3.17;86.21
13612;BME280;6877;51.436;6.774;2022-11-20T09:06:32;100809.59;;;3.70;84.19
13612;BME280;6877;51.436;6.774;2022-11-20T09:09:04;100811.34;;;3.74;82.96
13612;BME280;6877;51.436;6.774;2022-11-20T09:11:32;100800.94;;;3.71;82.05
13612;BME280;6877;51.436;6.774;2022-11-20T09:14:03;100791.03;;;4.17;82.78
13612;BME280;6877;51.436;6.774;2022-11-20T09:16:35;100794.94;;;4.80;79.65
13612;BME280;6877;51.436;6.774;2022-11-20T09:19:02;100791.78;;;5.52;77.49
13612;BME280;6877;51.436;6.774;2022-11-20T09:21:33;100792.78;;;6.18;74.42
13612;BME280;6877;51.436;6.774;2022-11-20T09:24:05;100778.88;;;6.53;72.03
13612;BME280;6877;51.436;6.774;2022-11-20T09:26:36;100790.13;;;6.40;71.30
13612;BME280;6877;51.436;6.774;2022-11-20T09:29:07;100783.25;;;6.37;71.15
13612;BME280;6877;51.436;6.774;2022-11-20T09:31:39;100782.34;;;6.40;70.95
13612;BME280;6877;51.436;6.774;2022-11-20T09:34:10;100774.53;;;6.37;71.57
13612;BME280;6877;51.436;6.774;2022-11-20T09:36:42;100776.28;;;6.56;70.77
13612;BME280;6877;51.436;6.774;2022-11-20T09:39:08;100776.97;;;7.16;69.74
13612;BME280;6877;51.436;6.774;2022-11-20T09:47:20;100761.66;;;9.65;59.86
13612;BME280;6877;51.436;6.774;2022-11-20T09:50:10;100759.81;;;9.70;57.92
13612;BME280;6877;51.436;6.774;2022-11-20T09:55:24;100771.50;;;7.67;61.19
13612;BME280;6877;51.436;6.774;2022-11-20T09:57:57;100776.25;;;6.64;63.73
13612;BME280;6877;51.436;6.774;2022-11-20T10:00:30;100771.91;;;5.69;66.05
13612;BME280;6877;51.436;6.774;2022-11-20T10:03:09;100779.41;;;4.90;68.55
13612;BME280;6877;51.436;6.774;2022-11-20T10:05:46;100779.09;;;4.40;70.42
13612;BME280;6877;51.436;6.774;2022-11-20T10:11:04;100762.28;;;3.85;72.41
13612;BME280;6877;51.436;6.774;2022-11-20T10:13:59;100767.16;;;3.54;74.25
13612;BME280;6877;51.436;6.774;2022-11-20T10:19:47;100761.25;;;3.66;75.08
13612;BME280;6877;51.436;6.774;2022-11-20T10:25:15;100751.97;;;3.91;75.22
13612;BME280;6877;51.436;6.774;2022-11-20T10:30:27;100737.44;;;4.13;75.07
13612;BME280;6877;51.436;6.774;2022-11-20T10:33:06;100731.44;;;4.15;75.26
13612;BME280;6877;51.436;6.774;2022-11-20T10:35:52;100728.88;;;4.22;75.64
13612;BME280;6877;51.436;6.774;2022-11-20T10:38:38;100727.19;;;4.25;75.28
13612;BME280;6877;51.436;6.774;2022-11-20T10:41:17;100724.63;;;4.28;75.64
13612;BME280;6877;51.436;6.774;2022-11-20T10:44:19;100717.72;;;4.27;75.51
13612;BME280;6877;51.436;6.774;2022-11-20T10:47:17;100720.28;;;4.23;75.51
13612;BME280;6877;51.436;6.774;2022-11-20T10:49:47;100712.44;;;4.15;75.61
13612;BME280;6877;51.436;6.774;2022-11-20T11:00:42;100716.69;;;4.04;76.37
13612;BME280;6877;51.436;6.774;2022-11-20T11:03:25;100708.09;;;4.08;76.04
13612;BME280;6877;51.436;6.774;2022-11-20T11:06:03;100706.38;;;4.13;76.09
13612;BME280;6877;51.436;6.774;2022-11-20T11:08:37;100698.66;;;4.19;76.12
13612;BME280;6877;51.436;6.774;2022-11-20T11:13:47;100692.53;;;4.05;76.23
13612;BME280;6877;51.436;6.774;2022-11-20T11:16:24;100685.56;;;3.94;76.30
13612;BME280;6877;51.436;6.774;2022-11-20T11:19:12;100693.25;;;3.87;76.94
13612;BME280;6877;51.436;6.774;2022-11-20T11:22:10;100679.34;;;3.77;77.26
13612;BME280;6877;51.436;6.774;2022-11-20T11:24:51;100672.41;;;3.70;77.69
13612;BME280;6877;51.436;6.774;2022-11-20T11:27:23;100669.81;;;3.70;78.03
13612;BME280;6877;51.436;6.774;2022-11-20T11:30:12;100648.25;;;3.71;78.02
13612;BME280;6877;51.436;6.774;2022-11-20T11:32:44;100645.69;;;3.74;78.09
13612;BME280;6877;51.436;6.774;2022-11-20T11:35:25;100637.94;;;3.76;78.29
13612;BME280;6877;51.436;6.774;2022-11-20T11:38:12;100638.00;;;3.82;78.08
13612;BME280;6877;51.436;6.774;2022-11-20T11:40:46;100633.69;;;3.85;78.36
13612;BME280;6877;51.436;6.774;2022-11-20T11:43:24;100637.16;;;3.87;78.39
13612;BME280;6877;51.436;6.774;2022-11-20T11:51:45;100620.88;;;4.01;78.38
13612;BME280;6877;51.436;6.774;2022-11-20T11:54:26;100617.41;;;4.02;78.51
13612;BME280;6877;51.436;6.774;2022-11-20T11:57:00;100606.22;;;4.04;78.49
13612;BME280;6877;51.436;6.774;2022-11-20T11:59:44;100604.47;;;4.02;78.59
13612;BME280;6877;51.436;6.774;2022-11-20T12:02:31;100607.03;;;4.00;78.61
13612;BME280;6877;51.436;6.774;2022-11-20T12:05:09;100597.53;;;3.98;78.63
13612;BME280;6877;51.436;6.774;2022-11-20T12:07:47;100600.06;;;3.90;78.79
13612;BME280;6877;51.436;6.774;2022-11-20T12:10:21;100599.19;;;3.86;79.31
13612;BME280;6877;51.436;6.774;2022-11-20T12:16:00;100597.53;;;3.94;79.65
13612;BME280;6877;51.436;6.774;2022-11-20T12:18:32;100594.94;;;3.96;79.62
13612;BME280;6877;51.436;6.774;2022-11-20T12:21:08;100588.88;;;3.95;79.46
13612;BME280;6877;51.436;6.774;2022-11-20T12:41:05;100566.66;;;4.40;78.00
13612;BME280;6877;51.436;6.774;2022-11-20T12:43:58;100559.72;;;4.36;77.58
13612;BME280;6877;51.436;6.774;2022-11-20T12:47:09;100563.16;;;4.29;77.95
13612;BME280;6877;51.436;6.774;2022-11-20T12:52:25;100551.06;;;4.30;77.90
13612;BME280;6877;51.436;6.774;2022-11-20T12:55:15;100537.28;;;4.32;78.28
13612;BME280;6877;51.436;6.774;2022-11-20T12:58:12;100533.81;;;4.36;77.88
13612;BME280;6877;51.436;6.774;2022-11-20T13:06:56;100520.81;;;4.21;78.30
13612;BME280;6877;51.436;6.774;2022-11-20T13:09:29;100509.59;;;4.21;78.73
13612;BME280;6877;51.436;6.774;2022-11-20T13:12:23;100506.13;;;4.18;78.78
13612;BME280;6877;51.436;6.774;2022-11-20T13:15:14;100505.22;;;4.12;79.41
13612;BME280;6877;51.436;6.774;2022-11-20T13:17:58;100509.53;;;4.04;79.61
13612;BME280;6877;51.436;6.774;2022-11-20T13:20:32;100498.25;;;3.97;81.46
13612;BME280;6877;51.436;6.774;2022-11-20T13:22:59;100482.72;;;3.95;82.15
13612;BME280;6877;51.436;6.774;2022-11-20T13:25:33;100487.03;;;3.92;83.82
13612;BME280;6877;51.436;6.774;2022-11-20T13:30:50;100479.13;;;3.63;84.44
13612;BME280;6877;51.436;6.774;2022-11-20T13:33:30;100479.91;;;3.53;88.24
13612;BME280;6877;51.436;6.774;2022-11-20T13:38:43;100472.97;;;3.41;89.92
13612;BME280;6877;51.436;6.774;2022-11-20T13:41:31;100470.34;;;3.35;91.07
13612;BME280;6877;51.436;6.774;2022-11-20T13:46:45;100454.75;;;3.25;93.14
13612;BME280;6877;51.436;6.774;2022-11-20T13:49:21;100448.72;;;3.25;92.78
13612;BME280;6877;51.436;6.774;2022-11-20T13:57:42;100438.31;;;3.16;94.28
13612;BME280;6877;51.436;6.774;2022-11-20T14:00:22;100434.88;;;3.17;94.90
13612;BME280;6877;51.436;6.774;2022-11-20T14:05:53;100432.28;;;3.12;94.79
13612;BME280;6877;51.436;6.774;2022-11-20T14:08:39;100425.34;;;3.11;95.27
13612;BME280;6877;51.436;6.774;2022-11-20T14:11:23;100417.63;;;3.13;96.00
13612;BME280;6877;51.436;6.774;2022-11-20T14:14:33;100416.75;;;3.12;96.64
13612;BME280;6877;51.436;6.774;2022-11-20T14:17:17;100402.94;;;3.12;96.34
13612;BME280;6877;51.436;6.774;2022-11-20T14:19:51;100401.22;;;3.11;96.73
13612;BME280;6877;51.436;6.774;2022-11-20T14:22:25;100386.56;;;3.11;96.91
13612;BME280;6877;51.436;6.774;2022-11-20T14:25:24;100371.94;;;3.13;97.32
13612;BME280;6877;51.436;6.774;2022-11-20T14:28:00;100369.34;;;3.15;97.06
13612;BME280;6877;51.436;6.774;2022-11-20T14:30:43;100359.00;;;3.13;97.20
13612;BME280;6877;51.436;6.774;2022-11-20T14:33:16;100368.50;;;3.16;97.37
13612;BME280;6877;51.436;6.774;2022-11-20T14:35:50;100364.19;;;3.18;97.85
13612;BME280;6877;51.436;6.774;2022-11-20T14:38:25;100366.81;;;3.19;98.09
13612;BME280;6877;51.436;6.774;2022-11-20T14:41:17;100355.59;;;3.19;98.14
13612;BME280;6877;51.436;6.774;2022-11-20T14:43:55;100352.13;;;3.17;98.39
13612;BME280;6877;51.436;6.774;2022-11-20T14:46:22;100346.94;;;3.14;98.28
13612;BME280;6877;51.436;6.774;2022-11-20T14:48:56;100340.06;;;3.13;98.45
13612;BME280;6877;51.436;6.774;2022-11-20T14:56:41;100331.41;;;3.11;99.14
13612;BME280;6877;51.436;6.774;2022-11-20T14:59:08;100328.84;;;3.12;99.55
13612;BME280;6877;51.436;6.774;2022-11-20T15:01:54;100324.53;;;3.13;99.66
13612;BME280;6877;51.436;6.774;2022-11-20T15:04:27;100323.69;;;3.17;99.96
13612;BME280;6877;51.436;6.774;2022-11-20T15:06:59;100314.19;;;3.13;99.65
13612;BME280;6877;51.436;6.774;2022-11-20T15:09:30;100299.53;;;3.12;99.99
13612;BME280;6877;51.436;6.774;2022-11-20T15:12:02;100294.34;;;3.12;100.00
13612;BME280;6877;51.436;6.774;2022-11-20T15:14:30;100292.63;;;3.08;99.83
13612;BME280;6877;51.436;6.774;2022-11-20T15:17:04;100283.16;;;3.07;100.00
13612;BME280;6877;51.436;6.774;2022-11-20T15:19:35;100278.81;;;3.06;100.00
13612;BME280;6877;51.436;6.774;2022-11-20T15:22:11;100277.97;;;3.07;100.00
13612;BME280;6877;51.436;6.774;2022-11-20T15:24:49;100266.75;;;3.05;100.00